sensor_id;sensor_type;location;lat;lon;timestamp;pressure;altitude;pressure_sealevel;temperature;humidity
74615;BME280;63121;51.458;-0.110;2023-04-15T00:01:20;100701.00;;;11.03;70.13
74615;BME280;63121;51.458;-0.110;2023-04-15T00:03:45;100705.53;;;10.84;69.60
74615;BME280;63121;51.458;-0.110;2023-04-15T00:06:12;100709.81;;;10.85;70.08
74615;BME280;63121;51.458;-0.110;2023-04-15T00:08:38;100709.69;;;10.94;69.81
74615;BME280;63121;51.458;-0.110;2023-04-15T00:11:03;100710.34;;;11.11;69.72
74615;BME280;63121;51.458;-0.110;2023-04-15T00:13:30;100715.34;;;11.24;68.51
74615;BME280;63121;51.458;-0.110;2023-04-15T00:15:56;100715.44;;;11.17;68.77
74615;BME280;63121;51.458;-0.110;2023-04-15T00:18:23;100720.47;;;11.27;68.76
74615;BME280;63121;51.458;-0.110;2023-04-15T00:20:48;100714.84;;;10.95;69.52
74615;BME280;63121;51.458;-0.110;2023-04-15T00:23:14;100717.13;;;11.18;68.54
74615;BME280;63121;51.458;-0.110;2023-04-15T00:25:39;100717.34;;;11.03;68.64
74615;BME280;63121;51.458;-0.110;2023-04-15T00:28:05;100724.59;;;10.72;69.73
74615;BME280;63121;51.458;-0.110;2023-04-15T00:30:30;100727.97;;;10.80;69.79
74615;BME280;63121;51.458;-0.110;2023-04-15T00:33:07;100733.91;;;10.87;69.88
74615;BME280;63121;51.458;-0.110;2023-04-15T00:35:33;100734.81;;;10.83;69.74
74615;BME280;63121;51.458;-0.110;2023-04-15T00:37:58;100735.97;;;10.54;70.48
74615;BME280;63121;51.458;-0.110;2023-04-15T00:40:24;100733.22;;;10.71;69.77
74615;BME280;63121;51.458;-0.110;2023-04-15T00:42:50;100743.94;;;11.10;70.06
74615;BME280;63121;51.458;-0.110;2023-04-15T00:45:16;100739.44;;;10.51;71.08
74615;BME280;63121;51.458;-0.110;2023-04-15T00:47:42;100741.13;;;10.54;70.96
74615;BME280;63121;51.458;-0.110;2023-04-15T00:50:08;100739.00;;;10.91;70.00
74615;BME280;63121;51.458;-0.110;2023-04-15T00:52:34;100739.91;;;10.87;69.91
74615;BME280;63121;51.458;-0.110;2023-04-15T00:54:59;100746.09;;;10.75;70.24
74615;BME280;63121;51.458;-0.110;2023-04-15T00:57:25;100746.13;;;10.71;70.02
74615;BME280;63121;51.458;-0.110;2023-04-15T00:59:52;100748.34;;;11.02;69.53
74615;BME280;63121;51.458;-0.110;2023-04-15T01:02:18;100748.09;;;10.49;70.52
74615;BME280;63121;51.458;-0.110;2023-04-15T01:04:43;100751.28;;;10.71;69.77
74615;BME280;63121;51.458;-0.110;2023-04-15T01:07:09;100755.41;;;10.89;69.44
74615;BME280;63121;51.458;-0.110;2023-04-15T01:09:34;100764.88;;;10.87;70.14
74615;BME280;63121;51.458;-0.110;2023-04-15T01:11:59;100758.94;;;10.78;70.06
74615;BME280;63121;51.458;-0.110;2023-04-15T01:14:27;100773.72;;;10.64;70.27
74615;BME280;63121;51.458;-0.110;2023-04-15T01:16:53;100777.94;;;10.73;70.90
74615;BME280;63121;51.458;-0.110;2023-04-15T01:19:18;100781.53;;;10.61;70.95
74615;BME280;63121;51.458;-0.110;2023-04-15T01:21:44;100778.31;;;10.36;71.72
74615;BME280;63121;51.458;-0.110;2023-04-15T01:24:10;100784.22;;;10.47;70.87
74615;BME280;63121;51.458;-0.110;2023-04-15T01:26:39;100787.69;;;10.45;71.42
74615;BME280;63121;51.458;-0.110;2023-04-15T01:29:05;100787.88;;;10.20;71.65
74615;BME280;63121;51.458;-0.110;2023-04-15T01:31:31;100794.94;;;9.95;71.61
74615;BME280;63121;51.458;-0.110;2023-04-15T01:33:57;100796.97;;;10.64;69.93
74615;BME280;63121;51.458;-0.110;2023-04-15T01:36:22;100802.88;;;9.72;72.75
74615;BME280;63121;51.458;-0.110;2023-04-15T01:38:48;100800.72;;;10.28;70.79
74615;BME280;63121;51.458;-0.110;2023-04-15T01:41:13;100805.84;;;10.35;70.54
74615;BME280;63121;51.458;-0.110;2023-04-15T01:43:39;100810.81;;;10.58;69.64
74615;BME280;63121;51.458;-0.110;2023-04-15T01:46:04;100809.13;;;10.53;69.55
74615;BME280;63121;51.458;-0.110;2023-04-15T01:48:30;100818.72;;;10.40;70.19
74615;BME280;63121;51.458;-0.110;2023-04-15T01:50:57;100828.91;;;10.54;69.80
74615;BME280;63121;51.458;-0.110;2023-04-15T01:53:25;100829.16;;;10.20;70.71
74615;BME280;63121;51.458;-0.110;2023-04-15T01:55:51;100830.06;;;10.14;70.48
74615;BME280;63121;51.458;-0.110;2023-04-15T01:58:17;100838.81;;;9.90;71.28
74615;BME280;63121;51.458;-0.110;2023-04-15T02:00:43;100845.75;;;9.82;71.37
74615;BME280;63121;51.458;-0.110;2023-04-15T02:03:08;100845.59;;;10.08;70.32
74615;BME280;63121;51.458;-0.110;2023-04-15T02:05:34;100855.69;;;10.42;69.74
74615;BME280;63121;51.458;-0.110;2023-04-15T02:07:59;100845.72;;;9.88;71.07
74615;BME280;63121;51.458;-0.110;2023-04-15T02:10:25;100855.59;;;10.51;69.13
74615;BME280;63121;51.458;-0.110;2023-04-15T02:12:51;100853.94;;;10.43;69.33
74615;BME280;63121;51.458;-0.110;2023-04-15T02:15:16;100856.38;;;10.60;68.53
74615;BME280;63121;51.458;-0.110;2023-04-15T02:17:42;100865.25;;;10.29;68.61
74615;BME280;63121;51.458;-0.110;2023-04-15T02:20:10;100869.34;;;10.55;68.32
74615;BME280;63121;51.458;-0.110;2023-04-15T02:22:35;100870.38;;;10.26;67.74
74615;BME280;63121;51.458;-0.110;2023-04-15T02:25:01;100872.31;;;10.00;69.45
74615;BME280;63121;51.458;-0.110;2023-04-15T02:27:26;100870.69;;;9.85;69.49
74615;BME280;63121;51.458;-0.110;2023-04-15T02:29:53;100876.72;;;9.76;70.22
74615;BME280;63121;51.458;-0.110;2023-04-15T02:32:18;100880.78;;;10.14;69.14
74615;BME280;63121;51.458;-0.110;2023-04-15T02:34:44;100888.59;;;10.06;69.94
74615;BME280;63121;51.458;-0.110;2023-04-15T02:37:12;100884.34;;;9.97;69.49
74615;BME280;63121;51.458;-0.110;2023-04-15T02:39:37;100894.81;;;9.65;70.23
74615;BME280;63121;51.458;-0.110;2023-04-15T02:42:03;100893.00;;;9.84;69.34
74615;BME280;63121;51.458;-0.110;2023-04-15T02:44:30;100895.59;;;9.80;69.80
74615;BME280;63121;51.458;-0.110;2023-04-15T02:46:56;100890.31;;;10.04;69.23
74615;BME280;63121;51.458;-0.110;2023-04-15T02:49:22;100898.88;;;10.09;68.88
74615;BME280;63121;51.458;-0.110;2023-04-15T02:51:48;100894.81;;;9.68;69.99
74615;BME280;63121;51.458;-0.110;2023-04-15T02:54:17;100897.19;;;10.07;68.74
74615;BME280;63121;51.458;-0.110;2023-04-15T02:56:43;100911.91;;;9.86;69.00
74615;BME280;63121;51.458;-0.110;2023-04-15T02:59:08;100908.50;;;9.78;69.26
74615;BME280;63121;51.458;-0.110;2023-04-15T03:01:34;100911.69;;;10.25;67.80
74615;BME280;63121;51.458;-0.110;2023-04-15T03:03:59;100916.81;;;10.32;67.89
74615;BME280;63121;51.458;-0.110;2023-04-15T03:06:25;100918.72;;;9.96;68.18
74615;BME280;63121;51.458;-0.110;2023-04-15T03:08:50;100925.63;;;9.88;68.46
74615;BME280;63121;51.458;-0.110;2023-04-15T03:11:16;100928.06;;;10.16;67.50
74615;BME280;63121;51.458;-0.110;2023-04-15T03:13:42;100932.53;;;9.80;69.26
74615;BME280;63121;51.458;-0.110;2023-04-15T03:16:08;100930.72;;;10.08;68.55
74615;BME280;63121;51.458;-0.110;2023-04-15T03:18:34;100931.63;;;9.96;69.02
74615;BME280;63121;51.458;-0.110;2023-04-15T03:21:00;100941.88;;;10.10;68.93
74615;BME280;63121;51.458;-0.110;2023-04-15T03:23:25;100942.88;;;9.85;70.31
74615;BME280;63121;51.458;-0.110;2023-04-15T03:25:50;100942.63;;;10.26;68.75
74615;BME280;63121;51.458;-0.110;2023-04-15T03:28:16;100940.13;;;10.09;69.37
74615;BME280;63121;51.458;-0.110;2023-04-15T03:30:41;100953.09;;;9.98;69.70
74615;BME280;63121;51.458;-0.110;2023-04-15T03:33:07;100959.25;;;9.65;70.81
74615;BME280;63121;51.458;-0.110;2023-04-15T03:35:33;100958.25;;;9.98;70.74
74615;BME280;63121;51.458;-0.110;2023-04-15T03:37:59;100966.72;;;10.25;69.38
74615;BME280;63121;51.458;-0.110;2023-04-15T03:40:24;100966.88;;;9.94;70.16
74615;BME280;63121;51.458;-0.110;2023-04-15T03:42:49;100979.78;;;9.93;70.81
74615;BME280;63121;51.458;-0.110;2023-04-15T03:45:15;100980.59;;;10.06;70.34
74615;BME280;63121;51.458;-0.110;2023-04-15T03:47:40;100984.06;;;9.92;70.75
74615;BME280;63121;51.458;-0.110;2023-04-15T03:50:06;100998.56;;;10.23;69.86
74615;BME280;63121;51.458;-0.110;2023-04-15T03:52:32;100995.88;;;10.46;69.17
74615;BME280;63121;51.458;-0.110;2023-04-15T03:54:58;101002.59;;;10.68;68.80
74615;BME280;63121;51.458;-0.110;2023-04-15T03:57:23;101008.19;;;9.87;70.82
74615;BME280;63121;51.458;-0.110;2023-04-15T03:59:49;101000.41;;;9.93;70.44
74615;BME280;63121;51.458;-0.110;2023-04-15T04:02:14;101007.97;;;10.28;69.74
74615;BME280;63121;51.458;-0.110;2023-04-15T04:04:39;101016.66;;;10.07;69.40
74615;BME280;63121;51.458;-0.110;2023-04-15T04:07:05;101014.19;;;9.87;70.04
74615;BME280;63121;51.458;-0.110;2023-04-15T04:09:30;101021.06;;;9.85;70.54
74615;BME280;63121;51.458;-0.110;2023-04-15T04:11:56;101025.34;;;9.89;70.59
74615;BME280;63121;51.458;-0.110;2023-04-15T04:14:22;101035.56;;;10.14;69.31
74615;BME280;63121;51.458;-0.110;2023-04-15T04:16:53;101026.88;;;10.35;68.77
74615;BME280;63121;51.458;-0.110;2023-04-15T04:19:18;101031.25;;;10.21;69.08
74615;BME280;63121;51.458;-0.110;2023-04-15T04:21:44;101039.94;;;9.98;69.90
74615;BME280;63121;51.458;-0.110;2023-04-15T04:24:10;101031.22;;;10.30;69.17
74615;BME280;63121;51.458;-0.110;2023-04-15T04:26:36;101044.25;;;9.90;70.44
74615;BME280;63121;51.458;-0.110;2023-04-15T04:29:01;101047.66;;;10.03;69.79
74615;BME280;63121;51.458;-0.110;2023-04-15T04:31:27;101055.44;;;9.89;70.21
74615;BME280;63121;51.458;-0.110;2023-04-15T04:33:52;101058.84;;;10.02;69.64
74615;BME280;63121;51.458;-0.110;2023-04-15T04:36:17;101069.09;;;10.17;69.65
74615;BME280;63121;51.458;-0.110;2023-04-15T04:38:43;101067.34;;;10.24;69.42
74615;BME280;63121;51.458;-0.110;2023-04-15T04:41:08;101063.94;;;10.14;69.47
74615;BME280;63121;51.458;-0.110;2023-04-15T04:43:33;101078.53;;;10.18;69.61
74615;BME280;63121;51.458;-0.110;2023-04-15T04:45:59;101076.81;;;10.23;69.21
74615;BME280;63121;51.458;-0.110;2023-04-15T04:48:24;101084.53;;;10.28;69.43
74615;BME280;63121;51.458;-0.110;2023-04-15T04:50:50;101093.25;;;9.93;70.41
74615;BME280;63121;51.458;-0.110;2023-04-15T04:53:16;101100.94;;;10.01;70.22
74615;BME280;63121;51.458;-0.110;2023-04-15T04:55:42;101100.03;;;10.14;69.65
74615;BME280;63121;51.458;-0.110;2023-04-15T04:58:07;101106.91;;;10.21;69.19
74615;BME280;63121;51.458;-0.110;2023-04-15T05:00:33;101114.63;;;10.46;68.59
74615;BME280;63121;51.458;-0.110;2023-04-15T05:02:58;101110.34;;;10.34;68.95
74615;BME280;63121;51.458;-0.110;2023-04-15T05:05:24;101121.53;;;10.24;69.26
74615;BME280;63121;51.458;-0.110;2023-04-15T05:07:49;101117.22;;;10.18;69.45
74615;BME280;63121;51.458;-0.110;2023-04-15T05:10:15;101130.19;;;9.92;70.52
74615;BME280;63121;51.458;-0.110;2023-04-15T05:12:42;101132.72;;;10.29;69.51
74615;BME280;63121;51.458;-0.110;2023-04-15T05:15:08;101136.94;;;10.54;68.84
74615;BME280;63121;51.458;-0.110;2023-04-15T05:17:33;101139.50;;;10.57;68.11
74615;BME280;63121;51.458;-0.110;2023-04-15T05:20:00;101151.63;;;10.23;69.35
74615;BME280;63121;51.458;-0.110;2023-04-15T05:22:25;101160.31;;;9.87;70.34
74615;BME280;63121;51.458;-0.110;2023-04-15T05:24:51;101165.38;;;10.42;69.08
74615;BME280;63121;51.458;-0.110;2023-04-15T05:27:16;101173.88;;;10.72;68.29
74615;BME280;63121;51.458;-0.110;2023-04-15T05:29:43;101177.44;;;10.32;68.91
74615;BME280;63121;51.458;-0.110;2023-04-15T05:32:08;101179.78;;;10.88;68.08
74615;BME280;63121;51.458;-0.110;2023-04-15T05:34:33;101185.03;;;10.82;67.87
74615;BME280;63121;51.458;-0.110;2023-04-15T05:36:59;101192.75;;;10.85;67.88
74615;BME280;63121;51.458;-0.110;2023-04-15T05:39:24;101197.09;;;10.70;67.84
74615;BME280;63121;51.458;-0.110;2023-04-15T05:41:50;101204.78;;;10.87;67.16
74615;BME280;63121;51.458;-0.110;2023-04-15T05:44:16;101202.09;;;11.04;67.05
74615;BME280;63121;51.458;-0.110;2023-04-15T05:46:41;101216.13;;;10.48;69.00
74615;BME280;63121;51.458;-0.110;2023-04-15T05:49:07;101238.50;;;10.46;69.33
74615;BME280;63121;51.458;-0.110;2023-04-15T05:51:32;101235.94;;;10.10;70.20
74615;BME280;63121;51.458;-0.110;2023-04-15T05:53:58;101246.97;;;10.86;68.55
74615;BME280;63121;51.458;-0.110;2023-04-15T05:56:23;101251.38;;;10.49;69.16
74615;BME280;63121;51.458;-0.110;2023-04-15T05:58:51;101261.63;;;10.75;68.53
74615;BME280;63121;51.458;-0.110;2023-04-15T06:01:16;101262.41;;;11.03;67.71
74615;BME280;63121;51.458;-0.110;2023-04-15T06:03:42;101262.13;;;11.52;66.13
74615;BME280;63121;51.458;-0.110;2023-04-15T06:06:07;101265.91;;;10.79;67.89
74615;BME280;63121;51.458;-0.110;2023-04-15T06:08:34;101274.63;;;10.49;69.45
74615;BME280;63121;51.458;-0.110;2023-04-15T06:10:59;101273.56;;;11.11;67.13
74615;BME280;63121;51.458;-0.110;2023-04-15T06:13:25;101280.56;;;10.80;67.54
74615;BME280;63121;51.458;-0.110;2023-04-15T06:15:51;101285.63;;;11.09;66.92
74615;BME280;63121;51.458;-0.110;2023-04-15T06:18:16;101284.00;;;10.82;67.71
74615;BME280;63121;51.458;-0.110;2023-04-15T06:20:42;101285.59;;;11.11;67.12
74615;BME280;63121;51.458;-0.110;2023-04-15T06:23:07;101296.03;;;10.83;67.05
74615;BME280;63121;51.458;-0.110;2023-04-15T06:25:32;101296.06;;;10.71;68.37
74615;BME280;63121;51.458;-0.110;2023-04-15T06:27:58;101300.38;;;10.80;67.76
74615;BME280;63121;51.458;-0.110;2023-04-15T06:30:23;101306.44;;;10.58;68.83
74615;BME280;63121;51.458;-0.110;2023-04-15T06:32:49;101315.81;;;10.92;68.23
74615;BME280;63121;51.458;-0.110;2023-04-15T06:35:14;101313.19;;;11.10;67.51
74615;BME280;63121;51.458;-0.110;2023-04-15T06:37:40;101323.38;;;11.44;66.77
74615;BME280;63121;51.458;-0.110;2023-04-15T06:40:06;101326.13;;;10.98;68.08
74615;BME280;63121;51.458;-0.110;2023-04-15T06:42:32;101332.09;;;11.22;67.15
74615;BME280;63121;51.458;-0.110;2023-04-15T06:44:58;101333.00;;;11.05;67.72
74615;BME280;63121;51.458;-0.110;2023-04-15T06:47:23;101342.38;;;11.34;66.66
74615;BME280;63121;51.458;-0.110;2023-04-15T06:49:49;101344.94;;;11.40;65.90
74615;BME280;63121;51.458;-0.110;2023-04-15T06:52:14;101353.44;;;11.67;65.11
74615;BME280;63121;51.458;-0.110;2023-04-15T06:54:41;101350.94;;;11.50;65.63
74615;BME280;63121;51.458;-0.110;2023-04-15T06:57:06;101359.66;;;11.21;66.35
74615;BME280;63121;51.458;-0.110;2023-04-15T06:59:33;101368.19;;;11.42;65.94
74615;BME280;63121;51.458;-0.110;2023-04-15T07:01:58;101375.97;;;11.37;65.96
74615;BME280;63121;51.458;-0.110;2023-04-15T07:04:24;101375.84;;;11.63;65.22
74615;BME280;63121;51.458;-0.110;2023-04-15T07:06:49;101383.59;;;11.69;64.76
74615;BME280;63121;51.458;-0.110;2023-04-15T07:09:15;101383.78;;;11.26;66.10
74615;BME280;63121;51.458;-0.110;2023-04-15T07:11:40;101395.03;;;10.96;66.67
74615;BME280;63121;51.458;-0.110;2023-04-15T07:14:06;101407.03;;;11.18;66.59
74615;BME280;63121;51.458;-0.110;2023-04-15T07:16:31;101407.03;;;11.23;66.38
74615;BME280;63121;51.458;-0.110;2023-04-15T07:18:57;101417.38;;;11.22;66.71
74615;BME280;63121;51.458;-0.110;2023-04-15T07:21:23;101421.72;;;11.01;66.62
74615;BME280;63121;51.458;-0.110;2023-04-15T07:23:48;101432.81;;;11.40;65.64
74615;BME280;63121;51.458;-0.110;2023-04-15T07:26:14;101427.78;;;10.69;67.27
74615;BME280;63121;51.458;-0.110;2023-04-15T07:28:39;101437.97;;;11.46;65.55
74615;BME280;63121;51.458;-0.110;2023-04-15T07:31:05;101437.88;;;11.77;64.12
74615;BME280;63121;51.458;-0.110;2023-04-15T07:33:31;101450.06;;;11.32;65.10
74615;BME280;63121;51.458;-0.110;2023-04-15T07:35:56;101451.84;;;11.14;66.21
74615;BME280;63121;51.458;-0.110;2023-04-15T07:38:22;101453.47;;;11.46;64.98
74615;BME280;63121;51.458;-0.110;2023-04-15T07:40:47;101456.91;;;11.54;65.06
74615;BME280;63121;51.458;-0.110;2023-04-15T07:43:13;101465.56;;;11.53;64.57
74615;BME280;63121;51.458;-0.110;2023-04-15T07:45:39;101481.97;;;11.29;65.61
74615;BME280;63121;51.458;-0.110;2023-04-15T07:48:04;101475.00;;;11.62;65.05
74615;BME280;63121;51.458;-0.110;2023-04-15T07:50:30;101481.94;;;11.28;65.23
74615;BME280;63121;51.458;-0.110;2023-04-15T07:52:56;101490.59;;;11.19;65.88
74615;BME280;63121;51.458;-0.110;2023-04-15T07:55:22;101495.72;;;11.45;65.42
74615;BME280;63121;51.458;-0.110;2023-04-15T07:57:48;101497.38;;;11.69;64.85
74615;BME280;63121;51.458;-0.110;2023-04-15T08:00:15;101499.81;;;12.15;63.79
74615;BME280;63121;51.458;-0.110;2023-04-15T08:02:44;101506.81;;;11.87;63.96
74615;BME280;63121;51.458;-0.110;2023-04-15T08:05:12;101503.22;;;12.25;62.96
74615;BME280;63121;51.458;-0.110;2023-04-15T08:07:38;101506.63;;;12.32;63.24
74615;BME280;63121;51.458;-0.110;2023-04-15T08:10:04;101515.44;;;11.95;63.99
74615;BME280;63121;51.458;-0.110;2023-04-15T08:12:30;101516.28;;;11.93;63.89
74615;BME280;63121;51.458;-0.110;2023-04-15T08:14:55;101526.59;;;12.04;63.54
74615;BME280;63121;51.458;-0.110;2023-04-15T08:17:21;101521.50;;;11.88;64.37
74615;BME280;63121;51.458;-0.110;2023-04-15T08:19:47;101521.16;;;12.56;62.49
74615;BME280;63121;51.458;-0.110;2023-04-15T08:22:13;101529.94;;;12.33;62.43
74615;BME280;63121;51.458;-0.110;2023-04-15T08:24:38;101525.63;;;12.29;62.46
74615;BME280;63121;51.458;-0.110;2023-04-15T08:27:04;101530.69;;;12.48;62.58
74615;BME280;63121;51.458;-0.110;2023-04-15T08:29:32;101541.13;;;12.34;63.13
74615;BME280;63121;51.458;-0.110;2023-04-15T08:31:59;101551.63;;;12.05;63.38
74615;BME280;63121;51.458;-0.110;2023-04-15T08:34:28;101532.53;;;12.30;63.17
74615;BME280;63121;51.458;-0.110;2023-04-15T08:36:54;101545.16;;;12.79;61.78
74615;BME280;63121;51.458;-0.110;2023-04-15T08:39:19;101546.13;;;12.69;61.84
74615;BME280;63121;51.458;-0.110;2023-04-15T08:41:47;101548.75;;;12.61;61.85
74615;BME280;63121;51.458;-0.110;2023-04-15T08:44:13;101553.19;;;12.39;62.67
74615;BME280;63121;51.458;-0.110;2023-04-15T08:46:40;101553.91;;;12.65;61.67
74615;BME280;63121;51.458;-0.110;2023-04-15T08:49:09;101566.78;;;12.80;61.84
74615;BME280;63121;51.458;-0.110;2023-04-15T08:51:34;101565.19;;;12.57;61.57
74615;BME280;63121;51.458;-0.110;2023-04-15T08:54:01;101575.66;;;12.34;62.62
74615;BME280;63121;51.458;-0.110;2023-04-15T08:56:30;101577.13;;;12.78;62.20
74615;BME280;63121;51.458;-0.110;2023-04-15T08:58:57;101584.94;;;12.72;61.89
74615;BME280;63121;51.458;-0.110;2023-04-15T09:01:23;101590.19;;;12.60;61.95
74615;BME280;63121;51.458;-0.110;2023-04-15T09:03:48;101589.59;;;13.46;60.06
74615;BME280;63121;51.458;-0.110;2023-04-15T09:06:17;101593.47;;;12.93;61.24
74615;BME280;63121;51.458;-0.110;2023-04-15T09:08:43;101595.97;;;13.00;61.23
74615;BME280;63121;51.458;-0.110;2023-04-15T09:11:09;101593.09;;;13.42;60.12
74615;BME280;63121;51.458;-0.110;2023-04-15T09:13:34;101606.34;;;13.04;60.67
74615;BME280;63121;51.458;-0.110;2023-04-15T09:16:04;101616.44;;;13.45;59.85
74615;BME280;63121;51.458;-0.110;2023-04-15T09:18:32;101618.28;;;13.21;60.09
74615;BME280;63121;51.458;-0.110;2023-04-15T09:21:05;101618.22;;;14.23;57.49
74615;BME280;63121;51.458;-0.110;2023-04-15T09:23:33;101631.09;;;14.31;56.79
74615;BME280;63121;51.458;-0.110;2023-04-15T09:25:59;101635.63;;;14.17;57.66
74615;BME280;63121;51.458;-0.110;2023-04-15T09:28:25;101643.03;;;14.46;56.26
74615;BME280;63121;51.458;-0.110;2023-04-15T09:30:58;101654.78;;;14.05;56.89
74615;BME280;63121;51.458;-0.110;2023-04-15T09:33:24;101658.81;;;14.29;56.58
74615;BME280;63121;51.458;-0.110;2023-04-15T09:36:02;101667.31;;;14.45;56.14
74615;BME280;63121;51.458;-0.110;2023-04-15T09:38:29;101672.38;;;14.59;55.84
74615;BME280;63121;51.458;-0.110;2023-04-15T09:40:55;101678.44;;;15.21;54.75
74615;BME280;63121;51.458;-0.110;2023-04-15T09:43:21;101684.56;;;15.17;54.26
74615;BME280;63121;51.458;-0.110;2023-04-15T09:45:49;101688.13;;;15.68;53.49
74615;BME280;63121;51.458;-0.110;2023-04-15T09:50:41;101699.84;;;14.78;54.84
74615;BME280;63121;51.458;-0.110;2023-04-15T09:53:15;101705.31;;;14.54;55.25
74615;BME280;63121;51.458;-0.110;2023-04-15T09:55:45;101712.22;;;14.61;55.68
74615;BME280;63121;51.458;-0.110;2023-04-15T09:58:27;101719.47;;;15.02;54.08
74615;BME280;63121;51.458;-0.110;2023-04-15T10:00:53;101724.09;;;15.41;53.98
74615;BME280;63121;51.458;-0.110;2023-04-15T10:03:23;101721.31;;;15.53;53.37
74615;BME280;63121;51.458;-0.110;2023-04-15T10:05:51;101719.56;;;15.55;53.55
74615;BME280;63121;51.458;-0.110;2023-04-15T10:08:19;101723.19;;;15.45;52.96
74615;BME280;63121;51.458;-0.110;2023-04-15T10:10:45;101733.97;;;15.20;53.49
74615;BME280;63121;51.458;-0.110;2023-04-15T10:13:22;101728.06;;;15.08;54.24
74615;BME280;63121;51.458;-0.110;2023-04-15T10:15:50;101735.66;;;15.21;54.45
74615;BME280;63121;51.458;-0.110;2023-04-15T10:18:19;101736.75;;;15.05;54.31
74615;BME280;63121;51.458;-0.110;2023-04-15T10:20:47;101741.25;;;15.56;53.20
74615;BME280;63121;51.458;-0.110;2023-04-15T10:23:12;101755.53;;;15.27;53.08
74615;BME280;63121;51.458;-0.110;2023-04-15T10:25:39;101751.16;;;15.31;53.99
74615;BME280;63121;51.458;-0.110;2023-04-15T10:28:05;101747.41;;;15.49;52.72
74615;BME280;63121;51.458;-0.110;2023-04-15T10:30:32;101749.88;;;14.96;54.35
74615;BME280;63121;51.458;-0.110;2023-04-15T10:32:59;101770.56;;;15.05;54.10
74615;BME280;63121;51.458;-0.110;2023-04-15T10:35:27;101765.94;;;14.54;55.35
74615;BME280;63121;51.458;-0.110;2023-04-15T10:37:53;101781.63;;;14.47;55.44
74615;BME280;63121;51.458;-0.110;2023-04-15T10:40:29;101777.44;;;14.29;56.33
74615;BME280;63121;51.458;-0.110;2023-04-15T10:43:00;101780.56;;;14.68;55.80
74615;BME280;63121;51.458;-0.110;2023-04-15T10:45:36;101787.03;;;14.22;55.76
74615;BME280;63121;51.458;-0.110;2023-04-15T10:48:03;101788.09;;;14.91;54.51
74615;BME280;63121;51.458;-0.110;2023-04-15T10:50:30;101796.50;;;15.11;54.19
74615;BME280;63121;51.458;-0.110;2023-04-15T10:52:56;101798.25;;;15.09;54.07
74615;BME280;63121;51.458;-0.110;2023-04-15T10:55:25;101803.66;;;14.94;53.90
74615;BME280;63121;51.458;-0.110;2023-04-15T10:57:57;101805.41;;;14.90;54.39
74615;BME280;63121;51.458;-0.110;2023-04-15T11:00:28;101803.09;;;14.66;54.50
74615;BME280;63121;51.458;-0.110;2023-04-15T11:02:58;101800.78;;;15.15;53.46
74615;BME280;63121;51.458;-0.110;2023-04-15T11:08:08;101798.28;;;15.73;52.01
74615;BME280;63121;51.458;-0.110;2023-04-15T11:13:22;101797.28;;;16.82;48.70
74615;BME280;63121;51.458;-0.110;2023-04-15T11:15:47;101803.72;;;16.12;49.91
74615;BME280;63121;51.458;-0.110;2023-04-15T11:18:20;101802.22;;;16.95;48.76
74615;BME280;63121;51.458;-0.110;2023-04-15T11:20:54;101792.09;;;17.23;48.45
74615;BME280;63121;51.458;-0.110;2023-04-15T11:23:34;101806.41;;;16.57;49.51
74615;BME280;63121;51.458;-0.110;2023-04-15T11:26:05;101812.56;;;15.41;52.58
74615;BME280;63121;51.458;-0.110;2023-04-15T11:28:33;101825.94;;;15.81;52.02
74615;BME280;63121;51.458;-0.110;2023-04-15T11:31:05;101818.81;;;16.44;50.37
74615;BME280;63121;51.458;-0.110;2023-04-15T11:33:31;101823.56;;;16.20;50.35
74615;BME280;63121;51.458;-0.110;2023-04-15T11:35:56;101822.19;;;15.98;50.64
74615;BME280;63121;51.458;-0.110;2023-04-15T11:38:22;101831.38;;;16.19;51.27
74615;BME280;63121;51.458;-0.110;2023-04-15T11:40:47;101820.56;;;16.90;49.23
74615;BME280;63121;51.458;-0.110;2023-04-15T11:43:18;101828.84;;;17.12;48.08
74615;BME280;63121;51.458;-0.110;2023-04-15T11:48:13;101841.88;;;16.16;50.33
74615;BME280;63121;51.458;-0.110;2023-04-15T11:50:39;101847.16;;;16.11;49.89
74615;BME280;63121;51.458;-0.110;2023-04-15T11:53:07;101844.63;;;16.59;48.99
74615;BME280;63121;51.458;-0.110;2023-04-15T11:55:43;101844.22;;;16.82;48.34
74615;BME280;63121;51.458;-0.110;2023-04-15T11:58:13;101843.91;;;16.99;47.82
74615;BME280;63121;51.458;-0.110;2023-04-15T12:00:40;101850.06;;;16.45;48.31
74615;BME280;63121;51.458;-0.110;2023-04-15T12:03:28;101841.69;;;17.21;47.43
74615;BME280;63121;51.458;-0.110;2023-04-15T12:06:16;101855.50;;;16.83;48.35
74615;BME280;63121;51.458;-0.110;2023-04-15T12:13:53;101849.03;;;17.85;45.65
74615;BME280;63121;51.458;-0.110;2023-04-15T12:16:20;101858.66;;;17.83;45.76
74615;BME280;63121;51.458;-0.110;2023-04-15T12:18:46;101860.50;;;17.37;46.60
74615;BME280;63121;51.458;-0.110;2023-04-15T12:21:12;101867.59;;;17.71;45.62
74615;BME280;63121;51.458;-0.110;2023-04-15T12:23:39;101873.00;;;17.62;45.93
74615;BME280;63121;51.458;-0.110;2023-04-15T12:26:11;101873.72;;;18.09;45.32
74615;BME280;63121;51.458;-0.110;2023-04-15T12:28:39;101874.72;;;18.39;44.96
74615;BME280;63121;51.458;-0.110;2023-04-15T12:31:10;101876.13;;;18.53;44.58
74615;BME280;63121;51.458;-0.110;2023-04-15T12:33:36;101879.91;;;18.41;43.63
74615;BME280;63121;51.458;-0.110;2023-04-15T12:36:02;101872.66;;;18.18;44.34
74615;BME280;63121;51.458;-0.110;2023-04-15T12:38:28;101874.63;;;18.06;45.47
74615;BME280;63121;51.458;-0.110;2023-04-15T12:40:54;101876.28;;;18.11;45.18
74615;BME280;63121;51.458;-0.110;2023-04-15T12:43:19;101881.91;;;18.29;44.73
74615;BME280;63121;51.458;-0.110;2023-04-15T12:45:44;101873.03;;;18.71;44.72
74615;BME280;63121;51.458;-0.110;2023-04-15T12:48:10;101879.72;;;18.48;44.50
74615;BME280;63121;51.458;-0.110;2023-04-15T12:50:35;101878.84;;;18.48;43.62
74615;BME280;63121;51.458;-0.110;2023-04-15T12:53:01;101890.91;;;18.88;42.52